Terminal Aerodrome Forecast
Issued by NWS

Home | Current Version | Previous Version | Text Only | Print | Product List | Glossary On
Versions: 1 2 3 4 5 6 7 8 9 10 11 12 13 14 15 16 17
568
FTUS42 KJAX 231742
TAFVQQ
TAF
KVQQ 231742Z 2318/2418 17009G18KT P6SM VCTS BKN025 OVC030CB
      TEMPO 2318/2322 5SM TSRA BKN015 BKN030CB
     FM240300 24008KT P6SM VCSH OVC020
     FM241000 33002KT 2SM BR BKN025=

USA.gov is the U.S. government's official web portal to all federal, state and local government web resources and services.